Time;durP1;ratioP1;P1;durP2;ratioP2;P2;SDS_P1;SDS_P2;PMS_P1;PMS_P2;Temp;Humidity;BMP_temperature;BMP_pressure;BME280_temperature;BME280_humidity;BME280_pressure;Samples;Min_cycle;Max_cycle;Signal;HPM_P1;HPM_P2
2021/01/09 00:01:40;;;;;;;49.37;22.67;;;-1.60;99.90;;;;;;5072819;28;20249;-76
2021/01/09 00:04:06;;;;;;;50.87;22.73;;;-1.50;99.90;;;;;;5054800;28;20613;-76
2021/01/09 00:06:37;;;;;;;109.73;54.90;;;-1.50;99.90;;;;;;5072988;28;20443;-76
2021/01/09 00:09:05;;;;;;;88.30;24.23;;;-1.40;99.90;;;;;;5055740;28;20235;-76
2021/01/09 00:11:31;;;;;;;47.17;22.33;;;-1.50;99.90;;;;;;5069150;28;20280;-76
2021/01/09 00:13:58;;;;;;;45.60;21.13;;;-1.70;99.90;;;;;;5072990;28;20289;-76
2021/01/09 00:16:24;;;;;;;46.23;21.83;;;-1.60;99.90;;;;;;5069303;28;20241;-76
2021/01/09 00:18:52;;;;;;;47.93;21.37;;;-1.70;99.90;;;;;;5068232;28;20268;-76
2021/01/09 00:21:18;;;;;;;45.33;19.80;;;-1.70;99.90;;;;;;5043928;28;20233;-76
2021/01/09 00:23:45;;;;;;;158.20;23.90;;;-1.70;99.90;;;;;;5068394;28;20309;-76
2021/01/09 00:26:12;;;;;;;55.70;21.93;;;-1.90;99.90;;;;;;5072116;28;20612;-76
2021/01/09 00:28:38;;;;;;;68.73;20.93;;;-2.00;99.90;;;;;;5072583;28;20264;-76
2021/01/09 00:31:06;;;;;;;82.77;21.30;;;-2.10;99.90;;;;;;5061916;28;20230;-76
2021/01/09 00:33:33;;;;;;;71.23;21.73;;;-2.00;99.90;;;;;;5071046;28;20191;-76
2021/01/09 00:35:59;;;;;;;66.87;22.03;;;-2.00;99.90;;;;;;5058333;28;20203;-76
2021/01/09 00:38:26;;;;;;;57.20;20.50;;;-2.00;99.90;;;;;;5056921;28;20311;-76
2021/01/09 00:40:52;;;;;;;72.67;21.00;;;-2.00;99.90;;;;;;5073055;28;20231;-75
2021/01/09 00:43:19;;;;;;;53.73;20.27;;;-2.00;99.90;;;;;;5072421;28;20242;-76
2021/01/09 00:45:46;;;;;;;84.43;22.17;;;-2.00;99.90;;;;;;5072427;28;20230;-76
2021/01/09 00:48:12;;;;;;;59.50;21.50;;;-2.00;99.90;;;;;;5070779;28;20284;-76
2021/01/09 00:50:39;;;;;;;41.63;19.73;;;-2.00;99.90;;;;;;5068038;28;20238;-76
2021/01/09 00:53:05;;;;;;;78.07;22.53;;;-1.90;99.90;;;;;;5052233;28;20229;-76
2021/01/09 00:55:31;;;;;;;91.67;22.50;;;-2.00;99.90;;;;;;5052291;28;20235;-76
2021/01/09 00:57:58;;;;;;;75.87;21.97;;;-2.00;99.90;;;;;;5052432;28;20663;-76
2021/01/09 01:00:25;;;;;;;90.83;24.30;;;-2.20;99.90;;;;;;5052381;28;20231;-76
2021/01/09 01:02:51;;;;;;;78.83;23.90;;;-2.20;99.90;;;;;;5066678;28;20222;-76
2021/01/09 01:05:18;;;;;;;71.30;23.20;;;-2.20;99.90;;;;;;5053843;28;20235;-76
2021/01/09 01:07:44;;;;;;;117.80;23.63;;;-2.10;99.90;;;;;;5064719;28;20678;-76
2021/01/09 01:10:13;;;;;;;66.30;25.00;;;-2.30;99.90;;;;;;5054463;28;20227;-76
2021/01/09 01:12:40;;;;;;;104.13;25.83;;;-2.20;99.90;;;;;;5059175;28;20194;-76
2021/01/09 01:15:08;;;;;;;81.97;24.27;;;-2.20;99.90;;;;;;5059862;28;20199;-75
2021/01/09 01:17:35;;;;;;;80.97;23.03;;;-2.30;99.90;;;;;;5056148;28;20326;-76
2021/01/09 01:20:01;;;;;;;123.40;23.17;;;-2.40;99.90;;;;;;5066372;28;20322;-75
2021/01/09 01:22:29;;;;;;;79.53;22.27;;;-2.40;99.90;;;;;;5073694;28;20196;-76
2021/01/09 01:24:55;;;;;;;62.20;21.47;;;-2.40;99.90;;;;;;5076251;28;20234;-76
2021/01/09 01:27:21;;;;;;;118.27;22.07;;;-2.30;99.90;;;;;;5075778;28;20278;-76
2021/01/09 01:29:48;;;;;;;70.70;21.10;;;-2.40;99.90;;;;;;5075974;28;20659;-76
2021/01/09 01:32:14;;;;;;;71.13;20.97;;;-2.40;99.90;;;;;;5076237;28;20299;-76
2021/01/09 01:34:41;;;;;;;86.10;22.73;;;-2.30;99.90;;;;;;5064152;28;20238;-76
2021/01/09 01:37:08;;;;;;;48.90;20.83;;;-2.30;99.90;;;;;;5075513;28;20246;-76
2021/01/09 01:39:34;;;;;;;73.37;22.20;;;-2.30;99.90;;;;;;5075805;28;20261;-76
2021/01/09 01:42:01;;;;;;;79.43;22.70;;;-2.20;99.90;;;;;;5075497;28;20280;-76
2021/01/09 01:44:30;;;;;;;66.90;21.80;;;-2.20;99.90;;;;;;5075565;28;20241;-76
2021/01/09 01:46:58;;;;;;;42.97;19.63;;;-2.20;99.90;;;;;;5075944;28;20286;-76
2021/01/09 01:49:24;;;;;;;46.63;20.07;;;-2.40;99.90;;;;;;5075827;28;20234;-76
2021/01/09 01:51:52;;;;;;;79.93;20.50;;;-2.50;99.90;;;;;;5075502;28;20329;-76
2021/01/09 01:54:19;;;;;;;50.57;20.80;;;-2.60;99.90;;;;;;5071520;28;20200;-75
2021/01/09 01:56:48;;;;;;;87.73;22.13;;;-2.60;99.90;;;;;;5074879;28;20211;-76
2021/01/09 01:59:14;;;;;;;70.83;20.87;;;-2.50;99.90;;;;;;5075719;28;20633;-76
2021/01/09 02:01:44;;;;;;;49.57;19.77;;;-2.50;99.90;;;;;;5068321;28;20285;-76
2021/01/09 02:04:11;;;;;;;45.87;19.60;;;-2.50;99.90;;;;;;5075297;28;20245;-76
2021/01/09 02:06:39;;;;;;;108.50;22.03;;;-2.60;99.90;;;;;;5066906;28;20202;-76
2021/01/09 02:09:12;;;;;;;71.97;19.47;;;-2.70;99.90;;;;;;5066025;28;20207;-76
2021/01/09 02:11:45;;;;;;;55.20;18.13;;;-2.70;99.90;;;;;;5055109;28;20231;-75
2021/01/09 02:14:18;;;;;;;63.57;18.90;;;-2.70;99.90;;;;;;5055107;28;20226;-77
2021/01/09 02:16:45;;;;;;;82.57;19.07;;;-2.70;99.90;;;;;;5074823;28;20729;-75
2021/01/09 02:19:13;;;;;;;50.43;18.30;;;-2.80;99.90;;;;;;5074822;28;20311;-75
2021/01/09 02:21:41;;;;;;;45.03;18.13;;;-2.70;99.90;;;;;;5074658;28;20203;-75
2021/01/09 02:24:15;;;;;;;56.53;17.30;;;-2.70;99.90;;;;;;5074490;28;20237;-77
2021/01/09 02:26:41;;;;;;;53.73;15.90;;;-2.80;99.90;;;;;;5049524;28;20261;-77
2021/01/09 02:29:08;;;;;;;46.43;16.47;;;-2.90;99.90;;;;;;5068820;28;20223;-75
2021/01/09 02:31:41;;;;;;;34.27;15.57;;;-2.90;99.90;;;;;;5073571;28;20200;-75
2021/01/09 02:34:10;;;;;;;33.83;15.50;;;-2.80;99.90;;;;;;5074642;28;20250;-77
2021/01/09 02:36:39;;;;;;;30.63;15.63;;;-2.80;99.90;;;;;;5064189;28;20568;-77
2021/01/09 02:39:05;;;;;;;39.67;16.50;;;-2.90;99.90;;;;;;5055037;28;20821;-77
2021/01/09 02:41:35;;;;;;;31.53;15.43;;;-3.00;99.90;;;;;;5060551;28;20234;-75
2021/01/09 02:44:09;;;;;;;35.17;15.90;;;-2.90;99.90;;;;;;5073672;28;20234;-76
2021/01/09 02:46:36;;;;;;;31.23;14.57;;;-3.00;99.90;;;;;;5074665;28;20206;-77
2021/01/09 02:49:03;;;;;;;38.07;15.90;;;-3.00;99.90;;;;;;5074734;28;20230;-77
2021/01/09 02:51:29;;;;;;;59.23;16.63;;;-2.90;99.90;;;;;;5074755;28;20260;-75
2021/01/09 02:53:55;;;;;;;38.40;15.00;;;-2.90;99.90;;;;;;5074524;28;20294;-77
2021/01/09 02:56:22;;;;;;;33.27;15.73;;;-2.90;99.90;;;;;;5074521;28;20233;-77
2021/01/09 02:58:49;;;;;;;32.13;15.77;;;-2.90;99.90;;;;;;5073954;28;20313;-78
2021/01/09 03:01:15;;;;;;;33.13;15.97;;;-2.90;99.90;;;;;;5073817;28;20230;-77
2021/01/09 03:03:42;;;;;;;30.33;15.17;;;-2.90;99.90;;;;;;5074439;28;20234;-75
2021/01/09 03:06:08;;;;;;;32.23;15.63;;;-3.00;99.90;;;;;;5074168;28;20689;-76
2021/01/09 03:08:35;;;;;;;29.33;16.20;;;-2.90;99.90;;;;;;5064094;28;20224;-76
2021/01/09 03:11:01;;;;;;;29.53;14.60;;;-2.90;99.90;;;;;;5053632;28;20353;-76
2021/01/09 03:13:28;;;;;;;33.80;15.33;;;-2.90;99.90;;;;;;5049292;28;20282;-76
2021/01/09 03:15:55;;;;;;;29.87;14.90;;;-2.90;99.90;;;;;;5070322;28;20641;-76
2021/01/09 03:18:22;;;;;;;24.57;14.13;;;-2.80;99.90;;;;;;5069271;28;20280;-76
2021/01/09 03:20:49;;;;;;;31.57;15.50;;;-2.70;99.90;;;;;;5073095;28;20235;-75
2021/01/09 03:23:15;;;;;;;36.33;15.80;;;-2.80;99.90;;;;;;5073247;28;20658;-76
2021/01/09 03:25:41;;;;;;;29.20;16.10;;;-2.70;99.90;;;;;;5073866;28;20282;-75
2021/01/09 03:28:08;;;;;;;32.97;15.27;;;-2.70;99.90;;;;;;5073388;28;20621;-75
2021/01/09 03:30:34;;;;;;;27.13;14.50;;;-2.80;99.90;;;;;;5070053;28;20729;-77
2021/01/09 03:33:02;;;;;;;27.67;15.20;;;-2.70;99.90;;;;;;5073596;28;20230;-75
2021/01/09 03:35:28;;;;;;;26.90;15.40;;;-2.70;99.90;;;;;;5073861;28;20206;-77
2021/01/09 03:37:54;;;;;;;26.07;14.73;;;-2.70;99.90;;;;;;5072226;28;20317;-77
2021/01/09 03:40:21;;;;;;;28.63;15.60;;;-2.60;99.90;;;;;;5070374;28;20217;-75
2021/01/09 03:42:47;;;;;;;31.17;16.27;;;-2.60;99.90;;;;;;5053489;28;20286;-78
2021/01/09 03:45:14;;;;;;;29.77;15.97;;;-2.60;99.90;;;;;;5059301;28;20309;-77
2021/01/09 03:47:40;;;;;;;29.67;16.33;;;-2.60;99.90;;;;;;5073462;28;20235;-78
2021/01/09 03:50:09;;;;;;;29.27;16.13;;;-2.60;99.90;;;;;;5072942;28;20237;-77
2021/01/09 03:52:36;;;;;;;26.93;15.67;;;-2.60;99.90;;;;;;5072995;28;20290;-77
2021/01/09 03:55:02;;;;;;;30.00;15.83;;;-2.60;99.90;;;;;;5073087;28;20685;-77
2021/01/09 03:57:29;;;;;;;29.87;16.00;;;-2.60;99.90;;;;;;5073069;28;20233;-77
2021/01/09 03:59:55;;;;;;;27.00;15.53;;;-2.60;99.90;;;;;;5073024;28;20292;-76
2021/01/09 04:02:21;;;;;;;28.13;15.57;;;-2.60;99.90;;;;;;5058486;28;20284;-76
2021/01/09 04:04:48;;;;;;;27.33;15.90;;;-2.60;99.90;;;;;;5052949;28;20245;-76
2021/01/09 04:07:15;;;;;;;25.77;15.50;;;-2.70;99.90;;;;;;5052843;28;20288;-76
2021/01/09 04:09:42;;;;;;;25.27;14.97;;;-2.70;99.90;;;;;;5053193;28;20206;-76
2021/01/09 04:12:08;;;;;;;25.20;14.33;;;-2.70;99.90;;;;;;5053011;28;20238;-76
2021/01/09 04:14:35;;;;;;;26.87;15.10;;;-2.80;99.90;;;;;;5053148;28;20553;-76
2021/01/09 04:17:01;;;;;;;28.80;15.27;;;-2.70;99.90;;;;;;5052889;28;20293;-77
2021/01/09 04:19:27;;;;;;;28.40;15.33;;;-2.70;99.90;;;;;;5057960;28;20312;-75
2021/01/09 04:21:54;;;;;;;25.27;15.13;;;-2.70;99.90;;;;;;5072469;28;20368;-76
2021/01/09 04:24:22;;;;;;;27.27;15.50;;;-2.70;99.90;;;;;;5072641;28;20289;-75
2021/01/09 04:26:53;;;;;;;25.70;14.87;;;-2.80;99.90;;;;;;5072868;28;20285;-75
2021/01/09 04:29:20;;;;;;;24.63;14.63;;;-2.90;99.90;;;;;;5067503;28;20257;-78
2021/01/09 04:31:46;;;;;;;24.93;14.60;;;-3.00;99.90;;;;;;5058914;28;20242;-78
2021/01/09 04:34:13;;;;;;;21.97;13.53;;;-3.10;99.90;;;;;;5071797;28;20352;-78
2021/01/09 04:36:39;;;;;;;25.80;13.93;;;-3.20;99.90;;;;;;5062553;28;20202;-77
2021/01/09 04:39:06;;;;;;;23.23;13.97;;;-3.30;99.90;;;;;;5072334;28;20268;-76
2021/01/09 04:41:35;;;;;;;23.77;14.03;;;-3.20;99.90;;;;;;5072940;28;20242;-75
2021/01/09 04:44:02;;;;;;;24.60;13.70;;;-3.30;99.90;;;;;;5072401;28;20264;-76
2021/01/09 04:46:31;;;;;;;22.37;13.87;;;-3.40;99.90;;;;;;5072712;28;20233;-78
2021/01/09 04:48:58;;;;;;;23.83;14.00;;;-3.40;99.90;;;;;;5072522;28;20201;-76
2021/01/09 04:51:26;;;;;;;22.80;13.87;;;-3.40;99.90;;;;;;5072110;28;20284;-78
2021/01/09 04:53:54;;;;;;;23.93;13.63;;;-3.50;99.90;;;;;;5072300;28;20730;-78
2021/01/09 04:56:22;;;;;;;21.53;13.90;;;-3.60;99.90;;;;;;5072358;28;20241;-77
2021/01/09 04:58:49;;;;;;;24.07;14.10;;;-3.60;99.90;;;;;;5072669;28;20296;-78
2021/01/09 05:01:16;;;;;;;25.13;14.70;;;-3.50;99.90;;;;;;5070905;28;20237;-78
2021/01/09 05:03:48;;;;;;;26.03;15.63;;;-3.50;99.90;;;;;;5067448;28;20202;-78
2021/01/09 05:06:19;;;;;;;25.70;14.87;;;-3.50;99.90;;;;;;5051872;28;20243;-78
2021/01/09 05:08:46;;;;;;;25.97;15.27;;;-3.60;99.90;;;;;;5052557;28;20230;-78
2021/01/09 05:11:12;;;;;;;22.17;13.73;;;-3.60;99.90;;;;;;5051866;28;20668;-78
2021/01/09 05:13:38;;;;;;;23.23;14.00;;;-3.70;99.90;;;;;;5066692;28;20289;-78
2021/01/09 05:16:06;;;;;;;22.20;13.77;;;-3.80;99.90;;;;;;5072170;28;20677;-77
2021/01/09 05:18:32;;;;;;;27.43;14.80;;;-3.80;99.90;;;;;;5072056;28;20760;-78
2021/01/09 05:20:59;;;;;;;24.03;14.33;;;-3.80;99.90;;;;;;5070896;28;20280;-78
2021/01/09 05:23:29;;;;;;;25.23;14.27;;;-3.70;99.90;;;;;;5070884;28;20773;-77
2021/01/09 05:25:55;;;;;;;23.83;14.40;;;-3.70;99.90;;;;;;5072346;28;20239;-78
2021/01/09 05:28:22;;;;;;;24.97;14.37;;;-3.70;99.90;;;;;;5072134;28;20541;-78
2021/01/09 05:30:48;;;;;;;22.80;14.10;;;-3.70;99.90;;;;;;5054403;28;20293;-77
2021/01/09 05:33:15;;;;;;;22.23;13.73;;;-3.70;99.90;;;;;;5069733;28;20231;-77
2021/01/09 05:35:42;;;;;;;22.47;13.60;;;-3.80;99.90;;;;;;5070541;28;20226;-75
2021/01/09 05:38:08;;;;;;;22.53;13.80;;;-3.90;99.90;;;;;;5071849;28;20311;-76
2021/01/09 05:40:38;;;;;;;21.67;13.70;;;-3.90;99.90;;;;;;5071925;28;20236;-77
2021/01/09 05:43:09;;;;;;;22.37;13.33;;;-4.00;99.90;;;;;;5072306;28;20238;-77
2021/01/09 05:45:38;;;;;;;22.27;13.07;;;-4.00;99.90;;;;;;5061098;28;20722;-77
2021/01/09 05:48:07;;;;;;;23.40;13.37;;;-4.00;99.90;;;;;;5051873;28;20201;-78
2021/01/09 05:50:34;;;;;;;22.10;13.63;;;-4.00;99.90;;;;;;5034261;28;20237;-78
2021/01/09 05:53:01;;;;;;;21.30;12.97;;;-3.90;99.90;;;;;;5039573;28;20218;-78
2021/01/09 05:55:39;;;;;;;22.90;13.67;;;-4.00;99.90;;;;;;5051958;28;20229;-77
2021/01/09 05:58:08;;;;;;;24.67;13.77;;;-4.00;99.90;;;;;;5051743;28;20223;-77
2021/01/09 06:00:37;;;;;;;22.80;13.53;;;-4.00;99.90;;;;;;5052022;28;20342;-77
2021/01/09 06:03:20;;;;;;;25.63;13.83;;;-3.90;99.90;;;;;;5055472;28;20580;-77
2021/01/09 06:05:48;;;;;;;22.73;12.90;;;-3.90;99.90;;;;;;5055367;28;20234;-77
2021/01/09 06:08:18;;;;;;;22.17;13.70;;;-3.90;99.90;;;;;;5055557;28;20241;-77
2021/01/09 06:10:48;;;;;;;22.27;13.37;;;-4.00;99.90;;;;;;5037572;28;20226;-78
2021/01/09 06:13:14;;;;;;;23.00;13.53;;;-4.00;99.90;;;;;;5055369;28;20286;-77
2021/01/09 06:15:43;;;;;;;22.23;13.37;;;-4.10;99.90;;;;;;5054855;28;20288;-77
2021/01/09 06:18:10;;;;;;;21.87;13.47;;;-4.10;99.90;;;;;;5074227;28;20220;-77
2021/01/09 06:20:37;;;;;;;22.33;13.17;;;-4.10;99.90;;;;;;5074096;28;20325;-77
2021/01/09 06:23:06;;;;;;;23.23;13.60;;;-4.20;99.90;;;;;;5074822;28;20657;-77
2021/01/09 06:25:35;;;;;;;21.70;13.60;;;-4.20;99.90;;;;;;5074801;28;20240;-77
2021/01/09 06:28:04;;;;;;;23.33;13.90;;;-4.20;99.90;;;;;;5067861;28;20201;-78
2021/01/09 06:30:33;;;;;;;23.53;14.23;;;-4.10;99.90;;;;;;5059878;28;20670;-77
2021/01/09 06:33:03;;;;;;;24.17;13.90;;;-4.00;99.90;;;;;;5072677;28;20208;-77
2021/01/09 06:35:32;;;;;;;24.20;14.03;;;-4.10;99.90;;;;;;5072737;28;20200;-78
2021/01/09 06:37:59;;;;;;;22.20;13.67;;;-4.20;99.90;;;;;;5074757;28;20230;-77
2021/01/09 06:40:26;;;;;;;22.93;13.30;;;-4.20;99.90;;;;;;5068531;28;20267;-77
2021/01/09 06:42:55;;;;;;;22.73;13.70;;;-4.20;99.90;;;;;;5074449;28;20618;-77
2021/01/09 06:45:23;;;;;;;20.00;13.00;;;-4.20;99.90;;;;;;5074747;28;20278;-77
2021/01/09 06:47:58;;;;;;;20.67;12.73;;;-4.30;99.90;;;;;;5074086;28;20292;-77
2021/01/09 06:50:32;;;;;;;22.63;13.43;;;-4.30;99.90;;;;;;5075181;28;20298;-77
2021/01/09 06:52:59;;;;;;;22.03;13.57;;;-4.30;99.90;;;;;;5074632;28;20199;-77
2021/01/09 06:55:55;;;;;;;22.37;12.70;;;-4.20;99.90;;;;;;5074572;28;20651;-77
2021/01/09 06:58:27;;;;;;;24.37;13.30;;;-4.10;99.90;;;;;;5034253;28;20303;-77
2021/01/09 07:01:04;;;;;;;22.43;13.30;;;-4.10;99.90;;;;;;5034100;28;20241;-77
2021/01/09 07:03:45;;;;;;;19.67;12.67;;;-4.20;99.90;;;;;;5034330;28;20245;-76
2021/01/09 07:06:11;;;;;;;22.10;13.20;;;-4.10;99.90;;;;;;5034276;28;20702;-76
2021/01/09 07:08:40;;;;;;;22.07;13.07;;;-4.10;99.90;;;;;;5034016;28;20690;-76
2021/01/09 07:11:11;;;;;;;22.50;13.57;;;-4.10;99.90;;;;;;5034383;28;20207;-77
2021/01/09 07:13:39;;;;;;;22.60;12.40;;;-4.00;99.90;;;;;;5034113;28;20202;-76
2021/01/09 07:16:10;;;;;;;22.67;13.03;;;-4.10;99.90;;;;;;5033884;28;20203;-75
2021/01/09 07:18:41;;;;;;;19.33;11.87;;;-4.00;99.90;;;;;;5033933;28;20261;-76
2021/01/09 07:21:11;;;;;;;23.43;13.37;;;-4.00;99.90;;;;;;5073876;28;20251;-76
2021/01/09 07:23:39;;;;;;;24.97;13.03;;;-4.00;99.90;;;;;;5073985;28;20284;-75
2021/01/09 07:26:08;;;;;;;22.00;12.50;;;-3.90;99.90;;;;;;5073800;28;20215;-75
2021/01/09 07:28:36;;;;;;;21.43;12.47;;;-4.00;99.90;;;;;;5074018;28;20234;-76
2021/01/09 07:31:04;;;;;;;22.83;13.30;;;-4.00;99.90;;;;;;5054224;28;20637;-76
2021/01/09 07:33:32;;;;;;;20.47;12.47;;;-4.00;99.90;;;;;;5053972;28;20242;-75
2021/01/09 07:36:00;;;;;;;23.07;13.40;;;-4.00;99.90;;;;;;5053619;28;20207;-75
2021/01/09 07:38:26;;;;;;;24.70;12.87;;;-3.90;99.90;;;;;;5069655;28;20319;-78
2021/01/09 07:40:55;;;;;;;22.97;13.30;;;-3.80;99.90;;;;;;5067717;28;20224;-78
2021/01/09 07:43:36;;;;;;;25.17;13.37;;;-3.80;99.90;;;;;;5053808;28;20245;-78
2021/01/09 07:46:24;;;;;;;25.43;15.10;;;-3.80;99.90;;;;;;5066270;28;20246;-77
2021/01/09 07:48:51;;;;;;;25.20;14.37;;;-3.80;99.90;;;;;;5072757;28;20231;-77
2021/01/09 07:51:19;;;;;;;26.30;14.63;;;-3.70;99.90;;;;;;5073250;28;20244;-78
2021/01/09 07:53:46;;;;;;;23.77;14.30;;;-3.80;99.90;;;;;;5072997;28;20241;-78
2021/01/09 07:56:36;;;;;;;25.83;14.37;;;-3.80;99.90;;;;;;5066879;28;20202;-77
2021/01/09 07:59:03;;;;;;;22.90;13.47;;;-3.80;99.90;;;;;;5053076;28;20232;-77
2021/01/09 08:01:30;;;;;;;22.73;13.60;;;-3.70;99.90;;;;;;5054041;28;20234;-78
2021/01/09 08:03:58;;;;;;;23.67;14.07;;;-3.70;99.90;;;;;;5072756;28;20258;-77
2021/01/09 08:06:24;;;;;;;26.13;14.40;;;-3.40;99.90;;;;;;5073054;28;20553;-77
2021/01/09 08:08:51;;;;;;;24.57;13.83;;;-3.40;99.90;;;;;;5073054;28;20236;-78
2021/01/09 08:11:17;;;;;;;25.47;14.03;;;-3.30;99.90;;;;;;5072974;28;20237;-77
2021/01/09 08:13:43;;;;;;;27.57;15.57;;;-3.10;99.90;;;;;;5072456;28;20282;-77
2021/01/09 08:16:11;;;;;;;25.40;15.33;;;-2.70;99.90;;;;;;5073038;28;20642;-77
2021/01/09 08:18:37;;;;;;;27.60;16.73;;;-2.30;99.90;;;;;;5071719;28;20309;-78
2021/01/09 08:21:03;;;;;;;30.07;16.57;;;-1.90;99.90;;;;;;5072797;28;20916;-77
2021/01/09 08:23:30;;;;;;;30.23;15.90;;;-1.70;99.90;;;;;;5072134;28;20287;-77
2021/01/09 08:25:56;;;;;;;30.03;16.53;;;-1.40;99.90;;;;;;5072289;28;20235;-77
2021/01/09 08:28:23;;;;;;;23.77;15.07;;;-1.00;99.90;;;;;;5053025;28;20201;-77
2021/01/09 08:30:50;;;;;;;24.97;16.40;;;-0.60;99.90;;;;;;5054784;28;20247;-77
2021/01/09 08:33:17;;;;;;;22.40;13.97;;;0.10;99.90;;;;;;5052522;28;20232;-77
2021/01/09 08:35:48;;;;;;;21.93;13.80;;;0.60;99.90;;;;;;5068382;28;20862;-77
2021/01/09 08:38:15;;;;;;;18.87;13.33;;;1.00;99.90;;;;;;5072535;28;20718;-78
2021/01/09 08:40:42;;;;;;;17.73;12.53;;;1.00;99.90;;;;;;5072497;28;20290;-77
2021/01/09 08:43:10;;;;;;;19.00;12.60;;;1.30;99.90;;;;;;5072416;28;20198;-77
2021/01/09 08:45:48;;;;;;;19.53;12.57;;;1.60;99.90;;;;;;5072605;28;20229;-76
2021/01/09 08:48:21;;;;;;;16.60;12.30;;;1.90;99.90;;;;;;5072614;28;20251;-74
2021/01/09 08:50:57;;;;;;;19.50;14.67;;;2.40;99.90;;;;;;5072463;28;20198;-74
2021/01/09 08:53:26;;;;;;;16.80;12.70;;;2.90;99.90;;;;;;5071501;28;20603;-75
2021/01/09 08:56:00;;;;;;;17.13;12.30;;;3.30;99.90;;;;;;5069867;28;20647;-73
2021/01/09 08:58:30;;;;;;;15.63;12.23;;;3.90;99.90;;;;;;5051495;28;20227;-74
2021/01/09 09:00:57;;;;;;;16.67;12.87;;;4.00;99.90;;;;;;5055811;28;20282;-75
2021/01/09 09:03:25;;;;;;;15.47;12.03;;;4.60;99.90;;;;;;5072249;28;20661;-75
2021/01/09 09:05:52;;;;;;;15.60;12.63;;;5.10;99.90;;;;;;5072222;28;20231;-74
2021/01/09 09:08:22;;;;;;;16.27;11.97;;;5.30;99.90;;;;;;5072263;28;20631;-74
2021/01/09 09:10:50;;;;;;;16.87;12.43;;;5.50;99.90;;;;;;5072258;28;20286;-75
2021/01/09 09:13:22;;;;;;;16.37;12.40;;;5.70;99.90;;;;;;5072087;28;20236;-75
2021/01/09 09:15:49;;;;;;;15.37;12.47;;;6.00;99.90;;;;;;5072112;28;20242;-75
2021/01/09 09:18:16;;;;;;;17.30;12.47;;;6.70;99.90;;;;;;5059984;28;20310;-74
2021/01/09 09:20:49;;;;;;;15.73;12.30;;;6.70;99.90;;;;;;5071687;28;20234;-75
2021/01/09 09:23:20;;;;;;;14.27;12.23;;;6.30;99.90;;;;;;5072012;28;20285;-75
2021/01/09 09:25:46;;;;;;;17.20;12.33;;;6.30;99.90;;;;;;5054358;28;20297;-75
2021/01/09 09:28:13;;;;;;;15.13;11.57;;;6.10;99.90;;;;;;5072320;28;20236;-75
2021/01/09 09:30:39;;;;;;;14.33;11.40;;;5.60;99.90;;;;;;5055831;28;20273;-75
2021/01/09 09:33:13;;;;;;;15.33;12.17;;;5.10;99.90;;;;;;5059279;28;20240;-75
2021/01/09 09:35:40;;;;;;;14.60;11.20;;;5.20;99.90;;;;;;5072363;28;20735;-75
2021/01/09 09:38:10;;;;;;;14.63;11.50;;;4.90;99.90;;;;;;5075694;28;20248;-75
2021/01/09 09:40:38;;;;;;;15.67;11.27;;;5.20;99.90;;;;;;5075359;28;20237;-75
2021/01/09 09:43:12;;;;;;;14.43;11.40;;;4.80;99.90;;;;;;5076025;28;20203;-76
2021/01/09 09:45:39;;;;;;;13.30;10.87;;;4.80;99.90;;;;;;5057909;28;20211;-77
2021/01/09 09:48:07;;;;;;;14.93;10.97;;;4.80;99.90;;;;;;5057735;28;20205;-76
2021/01/09 09:50:34;;;;;;;14.23;10.97;;;4.60;99.90;;;;;;5073537;28;20292;-76
2021/01/09 09:53:05;;;;;;;13.50;10.33;;;4.50;99.90;;;;;;5055712;28;20208;-76
2021/01/09 09:55:32;;;;;;;12.03;9.77;;;5.10;99.90;;;;;;5052075;28;20254;-76
2021/01/09 09:58:08;;;;;;;12.60;10.40;;;5.00;99.90;;;;;;5056161;28;20227;-76
2021/01/09 10:00:44;;;;;;;12.87;10.10;;;5.40;99.90;;;;;;5053478;28;20221;-76
2021/01/09 10:03:11;;;;;;;13.33;10.53;;;5.30;99.90;;;;;;5050376;28;20282;-77
2021/01/09 10:05:38;;;;;;;12.83;10.17;;;5.40;99.90;;;;;;5056387;28;20306;-76
2021/01/09 10:08:12;;;;;;;13.43;10.53;;;5.20;99.90;;;;;;5054774;28;20287;-76
2021/01/09 10:10:40;;;;;;;13.57;10.30;;;5.60;99.90;;;;;;5054680;28;20650;-76
2021/01/09 10:13:07;;;;;;;13.30;10.23;;;5.90;99.90;;;;;;5055135;28;20235;-76
2021/01/09 10:15:33;;;;;;;12.00;9.60;;;6.40;99.90;;;;;;5064363;28;20285;-77
2021/01/09 10:18:01;;;;;;;11.87;9.70;;;6.30;99.90;;;;;;5065603;28;20671;-76
2021/01/09 10:20:28;;;;;;;13.13;10.17;;;6.50;99.90;;;;;;5071595;28;20238;-76
2021/01/09 10:22:55;;;;;;;13.07;9.73;;;6.60;99.90;;;;;;5074954;28;20343;-77
2021/01/09 10:25:21;;;;;;;12.00;8.97;;;6.00;99.90;;;;;;5074546;28;20227;-76
2021/01/09 10:27:51;;;;;;;12.37;9.57;;;6.20;99.90;;;;;;5059246;28;20259;-76
2021/01/09 10:30:18;;;;;;;12.50;9.37;;;6.20;99.90;;;;;;5041746;28;20338;-76
2021/01/09 10:32:45;;;;;;;11.00;9.47;;;6.00;99.90;;;;;;5049466;28;20291;-76
2021/01/09 10:35:12;;;;;;;11.57;9.20;;;6.30;99.90;;;;;;5065007;28;20379;-76
2021/01/09 10:37:38;;;;;;;12.73;9.13;;;5.90;99.90;;;;;;5063811;28;20303;-74
2021/01/09 10:40:06;;;;;;;11.43;9.60;;;6.20;99.90;;;;;;5041881;28;20251;-74
2021/01/09 10:42:32;;;;;;;12.23;8.63;;;6.60;99.90;;;;;;5070633;28;20239;-76
2021/01/09 10:44:59;;;;;;;12.67;9.30;;;6.70;99.90;;;;;;5065246;28;20231;-78
2021/01/09 10:47:26;;;;;;;10.50;8.83;;;6.60;99.90;;;;;;5056105;28;20251;-77
2021/01/09 10:49:52;;;;;;;10.90;8.47;;;6.70;99.90;;;;;;5072049;28;20227;-76
2021/01/09 10:52:19;;;;;;;11.00;8.90;;;6.20;99.90;;;;;;5074308;28;20226;-77
2021/01/09 10:54:45;;;;;;;11.00;8.73;;;6.20;99.90;;;;;;5058301;28;20331;-77
2021/01/09 10:57:12;;;;;;;11.27;8.93;;;5.50;99.90;;;;;;5054291;28;20249;-75
2021/01/09 10:59:40;;;;;;;11.70;8.80;;;5.80;99.90;;;;;;5059777;28;20218;-75
2021/01/09 11:02:08;;;;;;;11.63;8.83;;;6.30;99.90;;;;;;5073713;28;20203;-76
2021/01/09 11:04:34;;;;;;;11.80;9.03;;;5.60;99.90;;;;;;5073862;28;20765;-77
2021/01/09 11:07:01;;;;;;;9.83;8.13;;;6.40;99.90;;;;;;5073420;28;20242;-77
2021/01/09 11:09:27;;;;;;;11.00;8.43;;;6.20;99.90;;;;;;5073504;28;20274;-77
2021/01/09 11:11:54;;;;;;;10.57;8.23;;;6.60;99.90;;;;;;5073329;28;20237;-75
2021/01/09 11:14:21;;;;;;;10.07;8.33;;;6.90;99.90;;;;;;5069604;28;20237;-77
2021/01/09 11:16:47;;;;;;;9.37;7.60;;;6.80;99.90;;;;;;5073951;28;20633;-76
2021/01/09 11:19:14;;;;;;;10.67;8.13;;;6.40;99.90;;;;;;5072455;28;20274;-77
2021/01/09 11:21:41;;;;;;;11.57;8.07;;;6.80;99.90;;;;;;5073725;28;20255;-74
2021/01/09 11:24:09;;;;;;;9.73;7.90;;;6.90;99.90;;;;;;5072178;28;20241;-77
2021/01/09 11:26:35;;;;;;;10.13;8.43;;;7.10;99.90;;;;;;5055428;28;20277;-78
2021/01/09 11:29:02;;;;;;;9.03;7.63;;;7.20;99.90;;;;;;5065045;28;20286;-77
2021/01/09 11:31:28;;;;;;;10.10;8.10;;;7.10;99.90;;;;;;5068050;28;20290;-78
2021/01/09 11:33:55;;;;;;;9.20;7.80;;;7.00;99.90;;;;;;5073240;28;20204;-79
2021/01/09 11:36:23;;;;;;;9.17;7.67;;;7.40;99.90;;;;;;5071409;28;20197;-78
2021/01/09 11:38:50;;;;;;;11.17;8.40;;;7.50;99.90;;;;;;5058811;28;20254;-78
2021/01/09 11:41:18;;;;;;;10.07;8.60;;;6.70;99.90;;;;;;5073384;28;20203;-79
2021/01/09 11:43:45;;;;;;;10.10;8.17;;;6.50;99.90;;;;;;5073646;28;20749;-79
2021/01/09 11:46:11;;;;;;;10.00;7.97;;;7.50;99.90;;;;;;5073585;28;20620;-77
2021/01/09 11:48:40;;;;;;;11.40;8.70;;;7.80;99.90;;;;;;5071815;28;20227;-79
2021/01/09 11:51:07;;;;;;;10.30;8.87;;;7.30;99.90;;;;;;5066942;28;20234;-78
2021/01/09 11:53:34;;;;;;;10.53;8.37;;;7.10;99.90;;;;;;5054204;28;20255;-78
2021/01/09 11:56:01;;;;;;;12.07;8.37;;;6.70;99.90;;;;;;5065245;28;20686;-79
2021/01/09 11:58:27;;;;;;;10.77;8.47;;;6.50;99.90;;;;;;5072607;28;20308;-79
2021/01/09 12:00:53;;;;;;;9.73;8.10;;;6.60;99.90;;;;;;5072833;28;20300;-78
2021/01/09 12:03:20;;;;;;;10.80;8.57;;;7.40;99.90;;;;;;5073062;28;20230;-79
2021/01/09 12:05:47;;;;;;;11.07;8.70;;;8.10;99.90;;;;;;5071877;28;20247;-78
2021/01/09 12:08:13;;;;;;;11.37;9.43;;;7.70;99.90;;;;;;5072932;28;20700;-79
2021/01/09 12:10:43;;;;;;;10.23;8.40;;;8.10;99.90;;;;;;5052676;28;20285;-78
2021/01/09 12:13:09;;;;;;;10.97;8.63;;;7.70;99.90;;;;;;5052890;28;20209;-79
2021/01/09 12:15:36;;;;;;;10.93;8.97;;;7.60;99.90;;;;;;5052930;28;20271;-79
2021/01/09 12:18:03;;;;;;;11.20;9.07;;;7.50;99.90;;;;;;5062100;28;20721;-78
2021/01/09 12:20:29;;;;;;;9.77;8.67;;;7.60;99.90;;;;;;5070778;28;20741;-79
2021/01/09 12:22:56;;;;;;;10.90;8.87;;;8.10;99.90;;;;;;5072329;28;20236;-77
2021/01/09 12:25:22;;;;;;;12.07;9.57;;;8.30;99.90;;;;;;5063430;28;20236;-77
2021/01/09 12:27:50;;;;;;;10.83;9.10;;;8.20;99.90;;;;;;5064452;28;20232;-77
2021/01/09 12:30:17;;;;;;;12.13;10.10;;;7.50;99.90;;;;;;5059592;28;20236;-78
2021/01/09 12:32:44;;;;;;;12.33;10.70;;;7.40;99.90;;;;;;5063797;28;20221;-77
2021/01/09 12:35:11;;;;;;;13.23;10.67;;;7.40;99.90;;;;;;5068959;28;20240;-77
2021/01/09 12:37:37;;;;;;;13.47;10.67;;;7.10;99.90;;;;;;5065663;28;20224;-77